Strona główna
METAR-TAF:

METAR-TAF

Lotnisko :

Port lotniczy Amsterdam-Schiphol

Amsterdam, Holandia

Szerokość geograficzna: 52-18N, Długość geograficzna: 004-46E, wysokość: -4 m

Aktualna obserwacja pogody

Raport powstał 38 minut temu, godzina 02:25 UTC
Wiatr 8 kt od zachód
Temperatura 18°C
Wilgotność 73%
Ciśnienie 1015 hPa
Widzialność 10 km lub więcej
Mało chmury na wysokości 4800 ft

METAR: EHAM 210225Z 28008KT 9999 FEW048 18/13 Q1015 NOSIG

czas: 05:03 (03:03 UTC)

Prognoza

Raport powstał 4 godziny i 17 minut temu, godzina 22:46 UTC
Prognoza ważna od 21 godzina 00 UTC do 22 godzina 06 UTC
Wiatr 10 kt od zachodnio-południowy zachód
Widzialność 10 km lub więcej
Rozproszone chmury na wysokości 2500 ft
Stopniowe zmiany
od 21 godzina 00 UTC do 21 godzina 03 UTC
Wiatr 10 kt od zachód
Stopniowe zmiany
od 21 godzina 17 UTC do 21 godzina 20 UTC
Wiatr 7 kt od południowo-południowy zachód

TAF: EHAM 202246Z 2100/2206 24010KT 9999 SCT025 BECMG 2100/2103 27010KT BECMG 2117/2120 21007KT

Obserwacja i prognoza pogody dla ponad 4000 lotnisk (raport METAR i TAF).

Dostępne stacje oznaczono żółtymi i czerwonymi punktami na mapie.

Najedź kursorem aby zobaczyć nazwę stacji.

Kliknij aby zobaczyć obserwacje i prognozy pogody.

Aby zmienić mapę: kliknij na zielony przycisk z czarnym krzyżykiem, aby powiększyć; na zielony przycisk z myślnikiem, aby pomniejszyć; na zielone strzałki, aby przejść do map sąsiednich.


METAR-TAF: